Terminal Aerodrome Forecast
Issued by NWS Cleveland, OH

Home | Current Version | Previous Version | Text Only | Print | Product List | Glossary Off
Versions: 1 2 3 4 5 6 7 8 9 10 11 12 13 14 15 16 17 18 19 20 21 22

000
FTUS41 KCLE 271700 RRA
TAFCAK
TAF
KCAK 271742Z 2718/2818 36010KT 6SM -SN OVC025
      TEMPO 2718/2722 3SM -SN OVC015
     FM280100 35006KT P6SM OVC025
     FM280700 34005KT 5SM BR SCT025
     FM281500 30005KT P6SM SCT030 BKN200=

USA.gov is the U.S. government's official web portal to all federal, state and local government web resources and services.